createdAt,value
2019-03-22T00:01:18.744Z,65.40
2019-03-22T00:04:00.966Z,63.50
2019-03-22T00:06:52.428Z,64.10
2019-03-22T00:09:37.513Z,67.40
2019-03-22T00:12:25.003Z,65.90
2019-03-22T00:15:08.924Z,66.70
2019-03-22T00:17:53.471Z,64.70
2019-03-22T00:20:46.876Z,63.90
2019-03-22T00:23:34.799Z,63.10
2019-03-22T00:26:18.747Z,63.00
2019-03-22T00:29:06.099Z,63.00
2019-03-22T00:31:47.014Z,62.60
2019-03-22T00:34:32.262Z,62.40
2019-03-22T00:37:17.767Z,61.40
2019-03-22T00:40:06.118Z,63.80
2019-03-22T00:42:47.068Z,64.90
2019-03-22T00:45:35.269Z,63.70
2019-03-22T00:48:37.793Z,63.80
2019-03-22T00:51:21.891Z,64.50
2019-03-22T00:54:08.348Z,63.70
2019-03-22T00:56:51.110Z,62.00
2019-03-22T00:59:35.675Z,64.60
2019-03-22T01:02:19.325Z,61.90
2019-03-22T01:05:03.241Z,63.50
2019-03-22T01:07:51.760Z,64.20
2019-03-22T01:10:37.662Z,64.70
2019-03-22T01:13:17.678Z,64.20
2019-03-22T01:15:59.747Z,63.80
2019-03-22T01:18:41.104Z,62.50
2019-03-22T01:21:25.434Z,61.80
2019-03-22T01:24:09.234Z,63.40
2019-03-22T01:26:50.540Z,63.80
2019-03-22T01:29:39.987Z,62.40
2019-03-22T01:32:26.312Z,61.80
2019-03-22T01:35:12.804Z,62.20
2019-03-22T01:37:55.327Z,64.40
2019-03-22T01:40:36.861Z,65.70
2019-03-22T01:43:28.810Z,65.90
2019-03-22T01:46:11.990Z,64.40
2019-03-22T01:48:55.819Z,61.80
2019-03-22T01:51:39.876Z,62.40
2019-03-22T01:54:23.892Z,63.30
2019-03-22T01:57:05.659Z,62.10
2019-03-22T01:59:50.917Z,66.10
2019-03-22T02:02:36.935Z,64.60
2019-03-22T02:05:19.281Z,64.40
2019-03-22T02:08:04.348Z,62.00
2019-03-22T02:10:49.021Z,61.80
2019-03-22T02:13:31.359Z,61.50
2019-03-22T02:19:30.034Z,60.90
2019-03-22T02:22:10.958Z,61.00
2019-03-22T02:25:07.168Z,63.40
2019-03-22T02:28:03.503Z,65.50
2019-03-22T02:30:44.306Z,63.60
2019-03-22T02:33:25.678Z,63.30
2019-03-22T02:36:06.375Z,60.60
2019-03-22T02:38:51.910Z,60.10
2019-03-22T02:41:40.134Z,62.20
2019-03-22T02:44:27.493Z,62.40
2019-03-22T02:47:09.914Z,64.60
2019-03-22T02:49:56.345Z,63.90
2019-03-22T02:52:38.478Z,61.70
2019-03-22T02:55:19.576Z,60.30
2019-03-22T02:58:01.022Z,59.00
2019-03-22T03:00:41.093Z,58.20
2019-03-22T03:03:21.406Z,57.60
2019-03-22T03:06:06.239Z,58.20
2019-03-22T03:08:51.060Z,59.00
2019-03-22T03:11:39.253Z,58.30
2019-03-22T03:14:27.156Z,58.60
2019-03-22T03:17:12.611Z,56.90
2019-03-22T03:19:55.919Z,59.50
2019-03-22T03:22:37.191Z,58.20
2019-03-22T03:25:21.501Z,59.30
2019-03-22T03:28:07.806Z,57.40
2019-03-22T03:30:50.380Z,58.00
2019-03-22T03:33:33.660Z,58.70
2019-03-22T03:36:20.012Z,57.50
2019-03-22T03:38:59.771Z,56.90
2019-03-22T03:41:40.361Z,55.50
2019-03-22T03:44:48.651Z,56.50
2019-03-22T03:47:35.054Z,57.10
2019-03-22T03:50:23.382Z,55.20
2019-03-22T03:53:07.988Z,56.40
2019-03-22T03:55:54.572Z,55.80
2019-03-22T03:58:51.781Z,53.90
2019-03-22T04:01:28.348Z,53.30
2019-03-22T04:04:12.764Z,52.90
2019-03-22T04:07:08.859Z,53.40
2019-03-22T04:09:53.195Z,53.50
2019-03-22T04:12:34.776Z,55.50
2019-03-22T04:15:32.142Z,55.40
2019-03-22T04:18:23.308Z,53.40
2019-03-22T04:21:14.315Z,53.70
2019-03-22T04:24:00.674Z,55.30
2019-03-22T04:27:06.753Z,54.60
2019-03-22T04:29:57.312Z,52.60
2019-03-22T04:32:43.999Z,53.20
2019-03-22T04:35:33.892Z,51.90
2019-03-22T04:38:19.984Z,51.80
2019-03-22T04:41:06.156Z,51.90
2019-03-22T04:47:01.201Z,52.10
2019-03-22T04:50:03.452Z,51.30
2019-03-22T04:53:23.992Z,50.50
2019-03-22T04:56:14.501Z,50.60
2019-03-22T04:59:18.844Z,51.60
2019-03-22T05:01:59.296Z,52.00
2019-03-22T05:04:46.002Z,51.40
2019-03-22T05:07:34.032Z,52.40
2019-03-22T05:10:30.913Z,50.80
2019-03-22T05:13:25.822Z,49.80
2019-03-22T05:16:42.481Z,49.90
2019-03-22T05:20:06.060Z,49.10
2019-03-22T05:22:52.711Z,48.70
2019-03-22T05:26:11.241Z,49.20
2019-03-22T05:32:23.329Z,47.80
2019-03-22T05:35:31.477Z,47.00
2019-03-22T05:38:19.108Z,46.90
2019-03-22T05:41:02.459Z,47.60
2019-03-22T05:44:03.724Z,48.10
2019-03-22T05:46:49.717Z,47.00
2019-03-22T05:49:31.748Z,47.50
2019-03-22T05:52:33.325Z,47.60
2019-03-22T05:55:27.985Z,48.50
2019-03-22T05:58:26.666Z,48.40
2019-03-22T06:01:13.869Z,47.80
2019-03-22T06:04:12.291Z,47.20
2019-03-22T06:07:02.231Z,47.80
2019-03-22T06:10:10.486Z,47.60
2019-03-22T06:13:38.433Z,47.80
2019-03-22T06:16:37.693Z,46.70
2019-03-22T06:19:33.912Z,46.30
2019-03-22T06:22:24.967Z,46.30
2019-03-22T06:25:08.802Z,47.50
2019-03-22T06:27:58.399Z,47.00
2019-03-22T06:30:43.735Z,47.10
2019-03-22T06:33:29.468Z,47.40
2019-03-22T06:36:23.897Z,46.20
2019-03-22T06:39:33.822Z,45.70
2019-03-22T06:42:46.748Z,45.60
2019-03-22T06:46:02.057Z,45.20
2019-03-22T07:04:08.127Z,46.40
2019-03-22T07:22:00.827Z,45.40
2019-03-22T07:28:51.868Z,46.00
2019-03-22T07:35:38.289Z,46.10
2019-03-22T07:39:23.541Z,44.00
2019-03-22T07:45:24.053Z,44.00
2019-03-22T07:52:33.605Z,43.90
2019-03-22T07:58:50.807Z,43.70
2019-03-22T08:06:14.426Z,45.00
2019-03-22T08:12:52.689Z,44.40
2019-03-22T08:16:08.773Z,43.40
2019-03-22T08:18:52.566Z,44.30
2019-03-22T08:21:39.779Z,43.40
2019-03-22T08:24:38.784Z,44.80
2019-03-22T08:27:20.056Z,43.70
2019-03-22T08:30:17.679Z,43.70
2019-03-22T08:33:19.575Z,44.10
2019-03-22T08:36:14.793Z,44.20
2019-03-22T08:39:10.717Z,44.80
2019-03-22T08:42:01.046Z,45.10
2019-03-22T08:44:48.925Z,45.40
2019-03-22T08:47:34.711Z,45.40
2019-03-22T08:50:17.348Z,45.80
2019-03-22T08:53:01.653Z,46.00
2019-03-22T08:55:51.040Z,45.60
2019-03-22T08:58:35.184Z,45.10
2019-03-22T09:01:20.405Z,44.70
2019-03-22T09:04:14.366Z,44.50
2019-03-22T09:07:02.285Z,45.30
2019-03-22T09:09:46.583Z,46.40
2019-03-22T09:12:40.991Z,46.60
2019-03-22T09:15:40.228Z,45.90
2019-03-22T09:18:20.763Z,46.40
2019-03-22T09:21:07.783Z,46.20
2019-03-22T09:23:53.134Z,45.40
2019-03-22T09:26:47.469Z,46.00
2019-03-22T09:29:38.211Z,46.50
2019-03-22T09:32:31.421Z,46.30
2019-03-22T09:35:12.851Z,46.60
2019-03-22T09:37:57.105Z,47.20
2019-03-22T09:40:43.094Z,47.50
2019-03-22T09:43:37.669Z,47.50
2019-03-22T09:46:22.916Z,46.60
2019-03-22T09:49:07.226Z,46.80
2019-03-22T09:51:57.499Z,47.20
2019-03-22T09:54:42.682Z,47.50
2019-03-22T09:57:27.639Z,47.20
2019-03-22T10:00:17.366Z,46.50
2019-03-22T10:03:04.068Z,47.50
2019-03-22T10:05:51.043Z,46.70
2019-03-22T10:08:40.608Z,46.40
2019-03-22T10:11:39.066Z,46.40
2019-03-22T10:14:24.053Z,47.20
2019-03-22T10:17:12.397Z,47.10
2019-03-22T10:20:07.825Z,46.20
2019-03-22T10:23:03.494Z,47.30
2019-03-22T10:25:49.589Z,47.30
2019-03-22T10:28:55.502Z,46.20
2019-03-22T10:31:42.784Z,46.80
2019-03-22T10:34:29.841Z,46.50
2019-03-22T10:37:10.198Z,46.10
2019-03-22T10:40:02.198Z,46.20
2019-03-22T10:42:45.027Z,45.40
2019-03-22T10:45:40.299Z,46.30
2019-03-22T10:48:26.254Z,46.70
2019-03-22T10:51:30.005Z,47.00
2019-03-22T10:54:14.663Z,45.80
2019-03-22T10:57:14.866Z,47.10
2019-03-22T10:59:57.207Z,46.50
2019-03-22T11:02:44.432Z,45.50
2019-03-22T11:05:40.969Z,45.90
2019-03-22T11:08:31.197Z,46.40
2019-03-22T11:11:17.105Z,46.30
2019-03-22T11:14:08.757Z,46.80
2019-03-22T11:17:13.395Z,46.20
2019-03-22T11:20:13.642Z,46.60
2019-03-22T11:23:02.428Z,46.80
2019-03-22T11:26:04.108Z,47.10
2019-03-22T11:29:06.708Z,46.70
2019-03-22T11:32:12.665Z,46.60
2019-03-22T11:35:03.594Z,46.30
2019-03-22T11:37:48.052Z,46.60
2019-03-22T11:40:34.003Z,47.00
2019-03-22T11:43:17.862Z,47.30
2019-03-22T11:46:07.054Z,47.90
2019-03-22T11:48:55.345Z,48.20
2019-03-22T11:52:09.959Z,49.00
2019-03-22T11:54:56.840Z,47.20
2019-03-22T11:58:03.579Z,47.30
2019-03-22T12:00:57.923Z,47.20
2019-03-22T12:03:57.142Z,47.60
2019-03-22T12:07:04.942Z,47.70
2019-03-22T12:09:57.978Z,47.90
2019-03-22T12:12:45.399Z,48.20
2019-03-22T12:15:34.276Z,49.00
2019-03-22T12:18:38.673Z,48.90
2019-03-22T12:21:35.823Z,48.80
2019-03-22T12:24:23.742Z,49.30
2019-03-22T12:27:15.588Z,48.80
2019-03-22T12:30:07.120Z,48.90
2019-03-22T12:33:10.211Z,49.50
2019-03-22T12:35:57.266Z,50.00
2019-03-22T12:39:09.933Z,49.10
2019-03-22T12:41:59.347Z,50.20
2019-03-22T12:45:14.914Z,53.20
2019-03-22T12:48:23.404Z,52.00
2019-03-22T12:51:26.146Z,50.50
2019-03-22T12:54:29.914Z,50.40
2019-03-22T12:57:21.216Z,50.40
2019-03-22T13:00:38.431Z,49.30
2019-03-22T13:03:34.500Z,49.00
2019-03-22T13:06:39.459Z,49.10
2019-03-22T13:09:43.773Z,49.50
2019-03-22T13:12:49.023Z,49.10
2019-03-22T13:15:54.307Z,51.20
2019-03-22T13:18:49.784Z,52.10
2019-03-22T13:21:36.791Z,51.60
2019-03-22T13:24:42.418Z,49.90
2019-03-22T13:27:33.207Z,49.90
2019-03-22T13:30:38.710Z,52.80
2019-03-22T13:33:37.161Z,51.10
2019-03-22T13:37:00.024Z,51.00
2019-03-22T13:43:33.120Z,50.00
2019-03-22T13:46:54.588Z,50.10
2019-03-22T13:49:59.331Z,48.80
2019-03-22T13:53:13.240Z,47.60
2019-03-22T13:56:18.370Z,47.40
2019-03-22T13:59:15.014Z,47.50
2019-03-22T14:02:39.008Z,47.60
2019-03-22T14:05:40.919Z,48.30
2019-03-22T14:12:21.264Z,47.90
2019-03-22T14:15:09.788Z,48.30
2019-03-22T14:17:58.423Z,47.70
2019-03-22T14:24:40.018Z,47.50
2019-03-22T14:27:43.297Z,47.70
2019-03-22T14:31:00.807Z,47.80
2019-03-22T14:34:00.447Z,47.90
2019-03-22T14:36:59.184Z,48.20
2019-03-22T14:40:06.248Z,48.20
2019-03-22T14:53:27.106Z,48.20
2019-03-22T14:56:28.303Z,48.90
2019-03-22T15:03:07.914Z,48.00
2019-03-22T15:06:13.706Z,48.00
2019-03-22T15:09:32.330Z,48.20
2019-03-22T15:12:53.590Z,48.00
2019-03-22T15:16:20.720Z,48.20
2019-03-22T15:19:25.294Z,48.20
2019-03-22T15:22:36.856Z,48.00
2019-03-22T15:25:37.557Z,48.60
2019-03-22T15:28:57.241Z,48.90
2019-03-22T15:32:01.380Z,48.50
2019-03-22T15:35:11.384Z,48.70
2019-03-22T15:38:19.814Z,48.60
2019-03-22T15:41:05.002Z,48.20
2019-03-22T15:44:03.065Z,47.90
2019-03-22T15:47:32.392Z,47.80
2019-03-22T15:50:35.588Z,48.50
2019-03-22T15:53:35.791Z,48.60
2019-03-22T15:56:38.927Z,48.90
2019-03-22T15:59:46.240Z,49.30
2019-03-22T16:02:42.918Z,47.30
2019-03-22T16:05:48.531Z,46.20
2019-03-22T16:08:49.034Z,46.40
2019-03-22T16:12:01.303Z,46.80
2019-03-22T16:15:03.834Z,46.90
2019-03-22T16:17:59.976Z,46.00
2019-03-22T16:21:02.939Z,46.10
2019-03-22T16:23:57.808Z,46.20
2019-03-22T16:26:55.723Z,45.00
2019-03-22T16:29:46.897Z,44.90
2019-03-22T16:32:49.357Z,44.50
2019-03-22T16:35:57.570Z,44.30
2019-03-22T16:38:53.358Z,45.00
2019-03-22T16:42:02.572Z,43.90
2019-03-22T16:44:54.193Z,44.00
2019-03-22T16:48:01.251Z,44.80
2019-03-22T16:51:04.822Z,46.00
2019-03-22T16:53:45.558Z,47.80
2019-03-22T16:56:37.730Z,48.70
2019-03-22T16:59:17.728Z,48.70
2019-03-22T17:02:01.171Z,49.20
2019-03-22T17:05:06.079Z,48.80
2019-03-22T17:07:44.798Z,48.00
2019-03-22T17:10:42.427Z,48.70
2019-03-22T17:13:35.475Z,48.80
2019-03-22T17:16:24.985Z,49.40
2019-03-22T17:19:08.269Z,49.70
2019-03-22T17:21:58.880Z,50.40
2019-03-22T17:24:45.349Z,50.80
2019-03-22T17:27:33.021Z,50.60
2019-03-22T17:30:16.827Z,50.90
2019-03-22T17:33:05.327Z,51.30
2019-03-22T17:35:53.919Z,50.90
2019-03-22T17:38:52.754Z,50.70
2019-03-22T17:41:31.523Z,51.20
2019-03-22T17:44:14.295Z,51.10
2019-03-22T17:47:10.954Z,50.50
2019-03-22T17:49:50.763Z,50.80
2019-03-22T17:52:37.501Z,51.10
2019-03-22T17:55:29.949Z,50.70
2019-03-22T17:58:10.205Z,51.20
2019-03-22T18:00:54.826Z,52.00
2019-03-22T18:03:36.268Z,51.70
2019-03-22T18:06:24.798Z,52.00
2019-03-22T18:09:13.652Z,52.00
2019-03-22T18:11:59.289Z,52.10
2019-03-22T18:14:47.228Z,52.10
2019-03-22T18:17:29.587Z,52.00
2019-03-22T18:20:24.426Z,52.20
2019-03-22T18:23:11.000Z,52.40
2019-03-22T18:25:55.811Z,52.80
2019-03-22T18:28:46.632Z,51.90
2019-03-22T18:31:34.374Z,51.20
2019-03-22T18:34:23.578Z,51.00
2019-03-22T18:37:07.090Z,50.90
2019-03-22T18:39:52.214Z,51.10
2019-03-22T18:42:38.368Z,51.20
2019-03-22T18:45:24.133Z,50.80
2019-03-22T18:48:10.914Z,51.10
2019-03-22T18:51:01.292Z,51.00
2019-03-22T18:53:52.808Z,50.70
2019-03-22T18:56:35.069Z,51.00
2019-03-22T18:59:20.351Z,50.70
2019-03-22T19:02:05.591Z,51.00
2019-03-22T19:04:53.823Z,50.80
2019-03-22T19:07:38.467Z,51.50
2019-03-22T19:10:18.722Z,52.30
2019-03-22T19:13:01.131Z,51.70
2019-03-22T19:15:43.078Z,52.20
2019-03-22T19:18:25.246Z,52.10
2019-03-22T19:21:11.006Z,52.80
2019-03-22T19:23:54.858Z,52.30
2019-03-22T19:26:43.094Z,51.60
2019-03-22T19:29:23.579Z,51.70
2019-03-22T19:32:13.315Z,51.80
2019-03-22T19:34:54.512Z,51.80
2019-03-22T19:37:36.267Z,52.60
2019-03-22T19:40:14.990Z,52.30
2019-03-22T19:42:59.654Z,52.50
2019-03-22T19:45:44.035Z,52.50
2019-03-22T19:48:36.055Z,52.90
2019-03-22T19:51:21.225Z,53.30
2019-03-22T19:54:03.355Z,53.20
2019-03-22T19:56:46.423Z,52.70
2019-03-22T19:59:28.113Z,52.40
2019-03-22T20:02:10.605Z,52.80
2019-03-22T20:05:04.269Z,52.50
2019-03-22T20:07:44.275Z,52.80
2019-03-22T20:10:26.827Z,53.10
2019-03-22T20:13:14.430Z,52.70
2019-03-22T20:16:05.812Z,53.00
2019-03-22T20:18:47.539Z,53.10
2019-03-22T20:21:33.751Z,53.10
2019-03-22T20:24:31.969Z,53.40
2019-03-22T20:27:16.994Z,53.10
2019-03-22T20:30:01.292Z,53.40
2019-03-22T20:32:44.192Z,53.40
2019-03-22T20:35:24.692Z,54.00
2019-03-22T20:38:06.597Z,54.10
2019-03-22T20:40:47.147Z,54.40
2019-03-22T20:43:35.375Z,55.00
2019-03-22T20:46:20.307Z,54.70
2019-03-22T20:49:05.143Z,54.70
2019-03-22T20:51:52.359Z,55.00
2019-03-22T20:54:33.802Z,55.10
2019-03-22T20:57:20.643Z,55.20
2019-03-22T21:00:04.860Z,55.40
2019-03-22T21:02:47.938Z,55.00
2019-03-22T21:05:30.684Z,54.70
2019-03-22T21:08:14.991Z,56.10
2019-03-22T21:10:56.924Z,55.70
2019-03-22T21:13:40.907Z,55.70
2019-03-22T21:16:20.939Z,55.60
2019-03-22T21:19:06.189Z,55.60
2019-03-22T21:21:46.698Z,55.80
2019-03-22T21:24:34.502Z,55.80
2019-03-22T21:27:15.888Z,55.50
2019-03-22T21:29:59.168Z,55.80
2019-03-22T21:32:49.253Z,56.10
2019-03-22T21:35:37.592Z,56.10
2019-03-22T21:38:19.535Z,56.30
2019-03-22T21:41:00.736Z,55.90
2019-03-22T21:43:42.656Z,55.80
2019-03-22T21:46:24.526Z,55.70
2019-03-22T21:49:05.195Z,55.70
2019-03-22T21:51:49.939Z,55.60
2019-03-22T21:54:34.321Z,55.10
2019-03-22T21:57:15.934Z,55.00
2019-03-22T21:59:56.803Z,55.30
2019-03-22T22:02:39.373Z,55.20
2019-03-22T22:05:22.842Z,55.20
2019-03-22T22:08:07.465Z,55.60
2019-03-22T22:10:59.353Z,55.30
2019-03-22T22:13:39.817Z,55.80
2019-03-22T22:16:23.226Z,55.90
2019-03-22T22:19:08.245Z,56.00
2019-03-22T22:21:53.747Z,56.00
2019-03-22T22:24:36.932Z,56.20
2019-03-22T22:27:20.130Z,56.20
2019-03-22T22:30:02.115Z,56.10
2019-03-22T22:32:51.316Z,56.00
2019-03-22T22:35:39.333Z,55.90
2019-03-22T22:38:22.218Z,55.80
2019-03-22T22:41:06.691Z,55.90
2019-03-22T22:43:51.922Z,56.40
2019-03-22T22:46:37.535Z,55.50
2019-03-22T22:49:28.945Z,55.30
2019-03-22T22:52:16.712Z,55.50
2019-03-22T22:55:00.927Z,55.80
2019-03-22T22:57:51.049Z,56.00
2019-03-22T23:00:32.407Z,56.50
2019-03-22T23:03:24.085Z,56.00
2019-03-22T23:06:09.599Z,56.20
2019-03-22T23:09:03.615Z,56.30
2019-03-22T23:11:55.538Z,56.30
2019-03-22T23:14:39.304Z,56.50
2019-03-22T23:17:23.612Z,56.40
2019-03-22T23:20:25.507Z,55.90
2019-03-22T23:23:27.652Z,56.10
2019-03-22T23:26:11.167Z,56.50
2019-03-22T23:29:02.217Z,57.10
2019-03-22T23:31:45.495Z,57.10
2019-03-22T23:34:37.088Z,57.70
2019-03-22T23:37:15.001Z,57.10
2019-03-22T23:40:07.080Z,57.70
2019-03-22T23:43:03.484Z,57.60
2019-03-22T23:45:47.047Z,58.10
2019-03-22T23:48:32.290Z,56.30
2019-03-22T23:51:25.955Z,58.30
2019-03-22T23:54:16.244Z,56.40
2019-03-22T23:57:01.910Z,60.20
2019-03-22T23:59:43.448Z,58.70
